This is the latest recevied weather packets stored in our database for station/object KD2ZLA. If no packets are shown the sender has not sent any weather packets the latest 1 day(s).
| Time | Temp. | Humidity | Pressure | Rain* | Wind** | Luminosity | Snow |
|---|---|---|---|---|---|---|---|
| 1778008390 | 20° C | 56% | 1002 hPa | 0 mm | 4.02 m/s, 282° | 177 W/m² | - |
| 1778008086 | 20° C | 56% | 1002.3 hPa | 0 mm | 4.47 m/s, 245° | 154 W/m² | - |
| 1778007782 | 20° C | 58% | 1002 hPa | 0 mm | 6.26 m/s, 310° | 198 W/m² | - |
| 1778007478 | 20° C | 62% | 1002.1 hPa | 0 mm | 1.79 m/s, 246° | 178 W/m² | - |
| 1778007174 | 20° C | 65% | 1002.3 hPa | 0 mm | 1.79 m/s, 279° | 216 W/m² | - |
| 1778006870 | 20° C | 65% | 1002 hPa | 0 mm | 3.58 m/s, 323° | 345 W/m² | - |
| 1778006568 | 20° C | 64% | 1002 hPa | 0 mm | 9.39 m/s, 231° | 260 W/m² | - |
| 1778006264 | 20° C | 66% | 1002 hPa | 0 mm | 5.81 m/s, 236° | 474 W/m² | - |
| 1778005962 | 20° C | 66% | 1001.9 hPa | 0 mm | 3.58 m/s, 250° | 364 W/m² | - |
| 1778005658 | 19.44° C | 68% | 1001.9 hPa | 0 mm | 5.36 m/s, 249° | 797 W/m² | - |
| 1778005355 | 18.89° C | 70% | 1001.8 hPa | 0 mm | 2.68 m/s, 245° | 486 W/m² | - |
| 1778005051 | 18.89° C | 71% | 1002.1 hPa | 0 mm | 5.36 m/s, 240° | 711 W/m² | - |
| 1778004749 | 18.33° C | 74% | 1002.1 hPa | 0 mm | 2.68 m/s, 221° | 701 W/m² | - |
| 1778004445 | 17.78° C | 75% | 1002 hPa | 0 mm | 4.02 m/s, 248° | 743 W/m² | - |
| 1778004142 | 17.78° C | 78% | 1002.1 hPa | 0 mm | 2.24 m/s, 275° | 804 W/m² | - |
| 1778003838 | 16.67° C | 82% | 1002.4 hPa | 0 mm | 2.68 m/s, 268° | 809 W/m² | - |
| 1778003535 | 16.11° C | 83% | 1002.1 hPa | 0 mm | 4.02 m/s, 242° | 384 W/m² | - |
| 1778003232 | 16.11° C | 84% | 1002.2 hPa | 0 mm | 3.58 m/s, 250° | 175 W/m² | - |
| 1778002929 | 16.67° C | 81% | 1002.3 hPa | 0 mm | 3.58 m/s, 232° | 192 W/m² | - |
| 1778002624 | 16.67° C | 79% | 1002.4 hPa | 0 mm | 1.79 m/s, 266° | 149 W/m² | - |
| 1778002321 | 16.67° C | 79% | 1002.5 hPa | 0 mm | 2.24 m/s, 248° | 95 W/m² | - |
| 1778002019 | 16.67° C | 79% | 1002.3 hPa | 0 mm | 1.34 m/s, 272° | 94 W/m² | - |
| 1778001715 | 16.67° C | 79% | 1002.2 hPa | 0.51 mm | 3.13 m/s, 253° | 100 W/m² | - |
| 1778001415 | 16.67° C | 79% | 1002.1 hPa | 0.51 mm | 4.02 m/s, 261° | 114 W/m² | - |
| 1778001112 | 17.22° C | 76% | 1002.1 hPa | 0.51 mm | 3.58 m/s, 269° | 95 W/m² | - |
* Rain latest hour (hover to see other rain measurements)
** Current wind speed in m/s (hover to see current wind gust speed)